Three Rivers, New Mexico
Current Conditions -  °F | °C
As of 7:58 PM on Saturday 22 Nov 2014 (Local Time) from KHMN Reporting Station
Clear Clear  
Wind Chill: 51°   Ceiling: Unl
Heat Index: 51°   Visibility: 10mi
Dew Point: 20°   Wind: 8mph
Humidity: 30%   Direction: 230°SW
Pressure: 29.88"   Gusts: NA
Location:  33.1487°N, 106.136°W
Report Text: KHMN 230258Z AUTO 23007KT 10SM CLR 11/M06 A2988 RMK AO2 SLP093 T01071064 55001 $
Loading
Personal Weather Stations






























Interactive Weather Map New forecast layout! Learn more

10-Day Weather Forecast

Advertisements
Track Severe Weather on mobile